sensor_id;sensor_type;location;lat;lon;timestamp;P1;durP1;ratioP1;P2;durP2;ratioP2
36653;SDS011;22650;49.350;20.898;2023-01-13T00:00:11;90.03;;;32.65;;
36653;SDS011;22650;49.350;20.898;2023-01-13T00:02:46;67.32;;;26.23;;
36653;SDS011;22650;49.350;20.898;2023-01-13T00:05:20;85.47;;;30.55;;
36653;SDS011;22650;49.350;20.898;2023-01-13T00:07:53;88.38;;;31.15;;
36653;SDS011;22650;49.350;20.898;2023-01-13T00:10:27;57.03;;;23.50;;
36653;SDS011;22650;49.350;20.898;2023-01-13T00:13:02;55.15;;;21.17;;
36653;SDS011;22650;49.350;20.898;2023-01-13T00:15:36;53.58;;;21.90;;
36653;SDS011;22650;49.350;20.898;2023-01-13T00:18:10;59.40;;;22.05;;
36653;SDS011;22650;49.350;20.898;2023-01-13T00:20:44;88.72;;;32.63;;
36653;SDS011;22650;49.350;20.898;2023-01-13T00:23:17;84.45;;;33.22;;
36653;SDS011;22650;49.350;20.898;2023-01-13T00:25:53;73.00;;;24.05;;
36653;SDS011;22650;49.350;20.898;2023-01-13T00:28:28;46.15;;;20.42;;
36653;SDS011;22650;49.350;20.898;2023-01-13T00:31:05;50.28;;;19.75;;
36653;SDS011;22650;49.350;20.898;2023-01-13T00:33:40;54.53;;;22.73;;
36653;SDS011;22650;49.350;20.898;2023-01-13T00:36:14;52.70;;;22.25;;
36653;SDS011;22650;49.350;20.898;2023-01-13T00:38:48;65.13;;;24.58;;
36653;SDS011;22650;49.350;20.898;2023-01-13T00:41:22;48.72;;;20.20;;
36653;SDS011;22650;49.350;20.898;2023-01-13T00:43:58;39.17;;;17.63;;
36653;SDS011;22650;49.350;20.898;2023-01-13T00:46:31;55.03;;;19.15;;
36653;SDS011;22650;49.350;20.898;2023-01-13T00:49:04;51.83;;;18.95;;
36653;SDS011;22650;49.350;20.898;2023-01-13T00:51:38;139.77;;;29.35;;
36653;SDS011;22650;49.350;20.898;2023-01-13T00:54:11;82.78;;;25.20;;
36653;SDS011;22650;49.350;20.898;2023-01-13T00:56:45;195.15;;;29.80;;
36653;SDS011;22650;49.350;20.898;2023-01-13T00:59:20;196.43;;;34.47;;
36653;SDS011;22650;49.350;20.898;2023-01-13T01:01:54;149.02;;;29.23;;
36653;SDS011;22650;49.350;20.898;2023-01-13T01:04:27;201.32;;;33.47;;
36653;SDS011;22650;49.350;20.898;2023-01-13T01:07:01;259.48;;;42.92;;
36653;SDS011;22650;49.350;20.898;2023-01-13T01:09:35;114.28;;;30.23;;
36653;SDS011;22650;49.350;20.898;2023-01-13T01:12:10;104.88;;;27.77;;
36653;SDS011;22650;49.350;20.898;2023-01-13T01:14:46;175.55;;;31.08;;
36653;SDS011;22650;49.350;20.898;2023-01-13T01:17:20;274.38;;;43.92;;
36653;SDS011;22650;49.350;20.898;2023-01-13T01:19:53;285.88;;;41.42;;
36653;SDS011;22650;49.350;20.898;2023-01-13T01:22:27;282.98;;;45.20;;
36653;SDS011;22650;49.350;20.898;2023-01-13T01:25:00;112.10;;;28.98;;
36653;SDS011;22650;49.350;20.898;2023-01-13T01:27:34;93.03;;;27.08;;
36653;SDS011;22650;49.350;20.898;2023-01-13T01:30:10;132.32;;;30.23;;
36653;SDS011;22650;49.350;20.898;2023-01-13T01:32:44;118.55;;;30.00;;
36653;SDS011;22650;49.350;20.898;2023-01-13T01:35:18;190.80;;;37.63;;
36653;SDS011;22650;49.350;20.898;2023-01-13T01:37:52;98.35;;;29.88;;
36653;SDS011;22650;49.350;20.898;2023-01-13T01:40:25;69.20;;;25.55;;
36653;SDS011;22650;49.350;20.898;2023-01-13T01:42:59;69.22;;;26.10;;
36653;SDS011;22650;49.350;20.898;2023-01-13T01:45:51;60.92;;;22.77;;
36653;SDS011;22650;49.350;20.898;2023-01-13T01:48:25;54.88;;;18.75;;
36653;SDS011;22650;49.350;20.898;2023-01-13T01:51:01;49.63;;;20.88;;
36653;SDS011;22650;49.350;20.898;2023-01-13T01:53:35;49.33;;;17.77;;
36653;SDS011;22650;49.350;20.898;2023-01-13T01:56:09;51.55;;;20.38;;
36653;SDS011;22650;49.350;20.898;2023-01-13T01:58:44;54.63;;;20.20;;
36653;SDS011;22650;49.350;20.898;2023-01-13T02:01:23;46.70;;;17.13;;
36653;SDS011;22650;49.350;20.898;2023-01-13T02:03:58;48.15;;;16.88;;
36653;SDS011;22650;49.350;20.898;2023-01-13T02:06:36;46.33;;;18.48;;
36653;SDS011;22650;49.350;20.898;2023-01-13T02:09:11;55.03;;;21.23;;
36653;SDS011;22650;49.350;20.898;2023-01-13T02:11:45;47.05;;;19.05;;
36653;SDS011;22650;49.350;20.898;2023-01-13T02:14:36;47.70;;;19.73;;
36653;SDS011;22650;49.350;20.898;2023-01-13T02:17:16;41.95;;;17.40;;
36653;SDS011;22650;49.350;20.898;2023-01-13T02:23:11;42.05;;;17.75;;
36653;SDS011;22650;49.350;20.898;2023-01-13T02:26:34;49.28;;;15.95;;
36653;SDS011;22650;49.350;20.898;2023-01-13T02:29:39;53.08;;;19.85;;
36653;SDS011;22650;49.350;20.898;2023-01-13T02:32:59;34.72;;;16.17;;
36653;SDS011;22650;49.350;20.898;2023-01-13T02:35:42;42.20;;;17.23;;
36653;SDS011;22650;49.350;20.898;2023-01-13T02:38:24;45.95;;;17.80;;
36653;SDS011;22650;49.350;20.898;2023-01-13T02:41:04;44.38;;;16.17;;
36653;SDS011;22650;49.350;20.898;2023-01-13T02:44:00;37.70;;;15.93;;
36653;SDS011;22650;49.350;20.898;2023-01-13T02:46:42;40.10;;;16.30;;
36653;SDS011;22650;49.350;20.898;2023-01-13T02:49:23;35.67;;;15.55;;
36653;SDS011;22650;49.350;20.898;2023-01-13T02:52:04;46.88;;;18.02;;
36653;SDS011;22650;49.350;20.898;2023-01-13T02:54:43;38.10;;;13.98;;
36653;SDS011;22650;49.350;20.898;2023-01-13T02:57:20;31.92;;;14.63;;
36653;SDS011;22650;49.350;20.898;2023-01-13T02:59:55;33.85;;;14.63;;
36653;SDS011;22650;49.350;20.898;2023-01-13T03:02:31;36.08;;;14.80;;
36653;SDS011;22650;49.350;20.898;2023-01-13T03:05:05;41.00;;;16.30;;
36653;SDS011;22650;49.350;20.898;2023-01-13T03:07:54;43.92;;;16.55;;
36653;SDS011;22650;49.350;20.898;2023-01-13T03:10:50;37.95;;;15.60;;
36653;SDS011;22650;49.350;20.898;2023-01-13T03:13:40;42.55;;;18.58;;
36653;SDS011;22650;49.350;20.898;2023-01-13T03:16:29;47.33;;;18.85;;
36653;SDS011;22650;49.350;20.898;2023-01-13T03:19:17;41.13;;;18.10;;
36653;SDS011;22650;49.350;20.898;2023-01-13T03:22:03;39.80;;;15.45;;
36653;SDS011;22650;49.350;20.898;2023-01-13T03:24:46;47.35;;;16.30;;
36653;SDS011;22650;49.350;20.898;2023-01-13T03:27:25;45.03;;;18.52;;
36653;SDS011;22650;49.350;20.898;2023-01-13T03:30:05;39.85;;;15.43;;
36653;SDS011;22650;49.350;20.898;2023-01-13T03:32:41;39.25;;;15.27;;
36653;SDS011;22650;49.350;20.898;2023-01-13T03:35:20;43.65;;;17.40;;
36653;SDS011;22650;49.350;20.898;2023-01-13T03:37:57;36.22;;;13.82;;
36653;SDS011;22650;49.350;20.898;2023-01-13T03:40:37;35.72;;;14.50;;
36653;SDS011;22650;49.350;20.898;2023-01-13T03:43:15;27.30;;;13.13;;
36653;SDS011;22650;49.350;20.898;2023-01-13T03:46:26;33.55;;;15.13;;
36653;SDS011;22650;49.350;20.898;2023-01-13T03:49:04;37.70;;;15.25;;
36653;SDS011;22650;49.350;20.898;2023-01-13T03:51:41;37.13;;;14.65;;
36653;SDS011;22650;49.350;20.898;2023-01-13T03:54:20;46.22;;;22.00;;
36653;SDS011;22650;49.350;20.898;2023-01-13T03:56:56;37.05;;;17.42;;
36653;SDS011;22650;49.350;20.898;2023-01-13T03:59:34;34.90;;;13.65;;
36653;SDS011;22650;49.350;20.898;2023-01-13T04:02:13;27.55;;;11.65;;
36653;SDS011;22650;49.350;20.898;2023-01-13T04:04:54;26.98;;;11.57;;
36653;SDS011;22650;49.350;20.898;2023-01-13T04:07:35;36.58;;;14.95;;
36653;SDS011;22650;49.350;20.898;2023-01-13T04:10:15;25.48;;;11.23;;
36653;SDS011;22650;49.350;20.898;2023-01-13T04:12:52;33.47;;;11.43;;
36653;SDS011;22650;49.350;20.898;2023-01-13T04:15:35;29.30;;;11.85;;
36653;SDS011;22650;49.350;20.898;2023-01-13T04:18:12;30.52;;;12.75;;
36653;SDS011;22650;49.350;20.898;2023-01-13T04:20:48;35.63;;;14.77;;
36653;SDS011;22650;49.350;20.898;2023-01-13T04:23:24;40.90;;;16.88;;
36653;SDS011;22650;49.350;20.898;2023-01-13T04:25:58;28.90;;;12.18;;
36653;SDS011;22650;49.350;20.898;2023-01-13T04:28:32;37.53;;;15.80;;
36653;SDS011;22650;49.350;20.898;2023-01-13T04:31:06;42.92;;;18.42;;
36653;SDS011;22650;49.350;20.898;2023-01-13T04:33:40;41.95;;;16.88;;
36653;SDS011;22650;49.350;20.898;2023-01-13T04:36:13;49.42;;;18.65;;
36653;SDS011;22650;49.350;20.898;2023-01-13T04:38:48;41.40;;;19.02;;
36653;SDS011;22650;49.350;20.898;2023-01-13T04:41:22;36.55;;;15.93;;
36653;SDS011;22650;49.350;20.898;2023-01-13T04:43:56;50.10;;;19.92;;
36653;SDS011;22650;49.350;20.898;2023-01-13T04:46:29;52.67;;;21.45;;
36653;SDS011;22650;49.350;20.898;2023-01-13T04:49:03;53.40;;;23.13;;
36653;SDS011;22650;49.350;20.898;2023-01-13T04:51:37;44.42;;;22.13;;
36653;SDS011;22650;49.350;20.898;2023-01-13T04:54:12;42.08;;;18.73;;
36653;SDS011;22650;49.350;20.898;2023-01-13T04:56:46;50.53;;;22.60;;
36653;SDS011;22650;49.350;20.898;2023-01-13T04:59:20;51.65;;;20.75;;
36653;SDS011;22650;49.350;20.898;2023-01-13T05:01:54;53.90;;;22.25;;
36653;SDS011;22650;49.350;20.898;2023-01-13T05:04:27;46.28;;;19.65;;
36653;SDS011;22650;49.350;20.898;2023-01-13T05:07:01;47.25;;;20.70;;
36653;SDS011;22650;49.350;20.898;2023-01-13T05:09:36;52.08;;;20.00;;
36653;SDS011;22650;49.350;20.898;2023-01-13T05:12:10;47.05;;;22.15;;
36653;SDS011;22650;49.350;20.898;2023-01-13T05:15:01;55.35;;;24.10;;
36653;SDS011;22650;49.350;20.898;2023-01-13T05:17:52;46.92;;;20.17;;
36653;SDS011;22650;49.350;20.898;2023-01-13T05:20:26;41.40;;;19.85;;
36653;SDS011;22650;49.350;20.898;2023-01-13T05:23:00;40.67;;;19.25;;
36653;SDS011;22650;49.350;20.898;2023-01-13T05:25:52;46.28;;;18.48;;
36653;SDS011;22650;49.350;20.898;2023-01-13T05:28:29;31.73;;;15.82;;
36653;SDS011;22650;49.350;20.898;2023-01-13T05:31:03;36.25;;;14.25;;
36653;SDS011;22650;49.350;20.898;2023-01-13T05:33:38;35.25;;;17.52;;
36653;SDS011;22650;49.350;20.898;2023-01-13T05:36:11;29.88;;;14.60;;
36653;SDS011;22650;49.350;20.898;2023-01-13T05:38:45;27.98;;;14.45;;
36653;SDS011;22650;49.350;20.898;2023-01-13T05:41:20;30.80;;;13.32;;
36653;SDS011;22650;49.350;20.898;2023-01-13T05:44:10;23.67;;;12.25;;
36653;SDS011;22650;49.350;20.898;2023-01-13T05:46:44;24.58;;;12.35;;
36653;SDS011;22650;49.350;20.898;2023-01-13T05:49:18;27.08;;;11.75;;
36653;SDS011;22650;49.350;20.898;2023-01-13T05:51:51;23.75;;;11.93;;
36653;SDS011;22650;49.350;20.898;2023-01-13T05:54:25;30.08;;;13.60;;
36653;SDS011;22650;49.350;20.898;2023-01-13T05:57:00;24.92;;;12.20;;
36653;SDS011;22650;49.350;20.898;2023-01-13T05:59:33;30.23;;;11.98;;
36653;SDS011;22650;49.350;20.898;2023-01-13T06:02:07;16.83;;;7.28;;
36653;SDS011;22650;49.350;20.898;2023-01-13T06:04:41;15.00;;;6.68;;
36653;SDS011;22650;49.350;20.898;2023-01-13T06:07:14;15.90;;;5.63;;
36653;SDS011;22650;49.350;20.898;2023-01-13T06:09:48;12.63;;;6.00;;
36653;SDS011;22650;49.350;20.898;2023-01-13T06:12:23;14.18;;;5.82;;
36653;SDS011;22650;49.350;20.898;2023-01-13T06:14:57;9.18;;;5.00;;
36653;SDS011;22650;49.350;20.898;2023-01-13T06:17:30;9.98;;;5.32;;
36653;SDS011;22650;49.350;20.898;2023-01-13T06:20:04;20.30;;;6.45;;
36653;SDS011;22650;49.350;20.898;2023-01-13T06:22:40;10.68;;;5.53;;
36653;SDS011;22650;49.350;20.898;2023-01-13T06:25:18;13.18;;;6.13;;
36653;SDS011;22650;49.350;20.898;2023-01-13T06:28:02;14.02;;;5.57;;
36653;SDS011;22650;49.350;20.898;2023-01-13T06:30:37;9.52;;;4.22;;
36653;SDS011;22650;49.350;20.898;2023-01-13T06:33:15;10.65;;;4.28;;
36653;SDS011;22650;49.350;20.898;2023-01-13T06:35:52;15.55;;;5.97;;
36653;SDS011;22650;49.350;20.898;2023-01-13T06:38:28;12.18;;;6.25;;
36653;SDS011;22650;49.350;20.898;2023-01-13T06:41:06;15.55;;;5.13;;
36653;SDS011;22650;49.350;20.898;2023-01-13T06:43:41;12.13;;;6.40;;
36653;SDS011;22650;49.350;20.898;2023-01-13T06:46:14;17.92;;;7.25;;
36653;SDS011;22650;49.350;20.898;2023-01-13T06:48:47;13.45;;;5.22;;
36653;SDS011;22650;49.350;20.898;2023-01-13T06:51:21;9.77;;;5.10;;
36653;SDS011;22650;49.350;20.898;2023-01-13T06:53:55;17.95;;;6.90;;
36653;SDS011;22650;49.350;20.898;2023-01-13T06:56:28;18.50;;;8.75;;
36653;SDS011;22650;49.350;20.898;2023-01-13T06:59:04;9.25;;;4.50;;
36653;SDS011;22650;49.350;20.898;2023-01-13T07:01:37;15.88;;;7.35;;
36653;SDS011;22650;49.350;20.898;2023-01-13T07:04:11;19.45;;;10.15;;
36653;SDS011;22650;49.350;20.898;2023-01-13T07:06:44;11.32;;;5.93;;
36653;SDS011;22650;49.350;20.898;2023-01-13T07:09:18;16.70;;;5.45;;
36653;SDS011;22650;49.350;20.898;2023-01-13T07:11:52;7.22;;;4.50;;
36653;SDS011;22650;49.350;20.898;2023-01-13T07:14:26;8.88;;;3.92;;
36653;SDS011;22650;49.350;20.898;2023-01-13T07:17:17;8.60;;;3.92;;
36653;SDS011;22650;49.350;20.898;2023-01-13T07:19:56;9.82;;;4.32;;
36653;SDS011;22650;49.350;20.898;2023-01-13T07:22:29;18.33;;;5.38;;
36653;SDS011;22650;49.350;20.898;2023-01-13T07:25:03;11.07;;;4.25;;
36653;SDS011;22650;49.350;20.898;2023-01-13T07:27:37;6.30;;;3.33;;
36653;SDS011;22650;49.350;20.898;2023-01-13T07:30:13;6.72;;;3.85;;
36653;SDS011;22650;49.350;20.898;2023-01-13T07:32:46;7.35;;;4.40;;
36653;SDS011;22650;49.350;20.898;2023-01-13T07:35:20;12.18;;;6.15;;
36653;SDS011;22650;49.350;20.898;2023-01-13T07:37:54;11.27;;;6.10;;
36653;SDS011;22650;49.350;20.898;2023-01-13T07:40:27;7.70;;;3.40;;
36653;SDS011;22650;49.350;20.898;2023-01-13T07:43:01;9.57;;;3.83;;
36653;SDS011;22650;49.350;20.898;2023-01-13T07:45:55;5.88;;;3.28;;
36653;SDS011;22650;49.350;20.898;2023-01-13T07:48:30;7.63;;;3.90;;
36653;SDS011;22650;49.350;20.898;2023-01-13T07:51:06;5.85;;;3.25;;
36653;SDS011;22650;49.350;20.898;2023-01-13T07:53:40;6.57;;;3.63;;
36653;SDS011;22650;49.350;20.898;2023-01-13T07:56:14;7.25;;;3.58;;
36653;SDS011;22650;49.350;20.898;2023-01-13T07:58:48;5.50;;;3.22;;
36653;SDS011;22650;49.350;20.898;2023-01-13T08:01:25;7.15;;;3.80;;
36653;SDS011;22650;49.350;20.898;2023-01-13T08:04:03;10.68;;;3.72;;
36653;SDS011;22650;49.350;20.898;2023-01-13T08:06:37;8.82;;;3.88;;
36653;SDS011;22650;49.350;20.898;2023-01-13T08:09:11;7.07;;;3.92;;
36653;SDS011;22650;49.350;20.898;2023-01-13T08:11:45;8.00;;;3.63;;
36653;SDS011;22650;49.350;20.898;2023-01-13T08:14:38;6.15;;;3.20;;
36653;SDS011;22650;49.350;20.898;2023-01-13T08:17:13;8.45;;;4.07;;
36653;SDS011;22650;49.350;20.898;2023-01-13T08:19:50;8.50;;;3.15;;
36653;SDS011;22650;49.350;20.898;2023-01-13T08:22:23;8.90;;;4.00;;
36653;SDS011;22650;49.350;20.898;2023-01-13T08:24:57;10.32;;;4.40;;
36653;SDS011;22650;49.350;20.898;2023-01-13T08:27:31;10.18;;;3.95;;
36653;SDS011;22650;49.350;20.898;2023-01-13T08:30:06;6.85;;;3.72;;
36653;SDS011;22650;49.350;20.898;2023-01-13T08:32:43;7.05;;;3.65;;
36653;SDS011;22650;49.350;20.898;2023-01-13T08:35:17;11.30;;;3.60;;
36653;SDS011;22650;49.350;20.898;2023-01-13T08:37:51;8.55;;;4.07;;
36653;SDS011;22650;49.350;20.898;2023-01-13T08:40:25;7.97;;;4.05;;
36653;SDS011;22650;49.350;20.898;2023-01-13T08:42:58;7.25;;;3.35;;
36653;SDS011;22650;49.350;20.898;2023-01-13T08:45:32;6.30;;;3.30;;
36653;SDS011;22650;49.350;20.898;2023-01-13T08:48:08;5.72;;;3.17;;
36653;SDS011;22650;49.350;20.898;2023-01-13T08:50:41;6.82;;;3.88;;
36653;SDS011;22650;49.350;20.898;2023-01-13T08:53:15;4.72;;;2.88;;
36653;SDS011;22650;49.350;20.898;2023-01-13T08:55:49;10.73;;;3.53;;
36653;SDS011;22650;49.350;20.898;2023-01-13T08:58:22;6.95;;;3.47;;
36653;SDS011;22650;49.350;20.898;2023-01-13T09:00:56;6.20;;;3.50;;
36653;SDS011;22650;49.350;20.898;2023-01-13T09:03:37;5.97;;;3.58;;
36653;SDS011;22650;49.350;20.898;2023-01-13T09:06:12;6.55;;;3.30;;
36653;SDS011;22650;49.350;20.898;2023-01-13T09:08:46;8.00;;;4.18;;
36653;SDS011;22650;49.350;20.898;2023-01-13T09:11:20;7.40;;;3.72;;
36653;SDS011;22650;49.350;20.898;2023-01-13T09:14:18;7.93;;;3.70;;
36653;SDS011;22650;49.350;20.898;2023-01-13T09:16:51;9.10;;;5.15;;
36653;SDS011;22650;49.350;20.898;2023-01-13T09:19:27;5.43;;;2.67;;
36653;SDS011;22650;49.350;20.898;2023-01-13T09:22:01;5.82;;;3.85;;
36653;SDS011;22650;49.350;20.898;2023-01-13T09:24:35;6.65;;;4.22;;
36653;SDS011;22650;49.350;20.898;2023-01-13T09:27:09;5.00;;;3.20;;
36653;SDS011;22650;49.350;20.898;2023-01-13T09:29:43;5.43;;;3.15;;
36653;SDS011;22650;49.350;20.898;2023-01-13T09:32:17;6.57;;;3.15;;
36653;SDS011;22650;49.350;20.898;2023-01-13T09:34:52;11.20;;;4.05;;
36653;SDS011;22650;49.350;20.898;2023-01-13T09:37:35;5.47;;;2.60;;
36653;SDS011;22650;49.350;20.898;2023-01-13T09:40:12;5.97;;;3.35;;
36653;SDS011;22650;49.350;20.898;2023-01-13T09:42:51;7.30;;;3.88;;
36653;SDS011;22650;49.350;20.898;2023-01-13T09:45:48;4.85;;;3.00;;
36653;SDS011;22650;49.350;20.898;2023-01-13T09:48:28;11.00;;;4.72;;
36653;SDS011;22650;49.350;20.898;2023-01-13T09:51:07;17.55;;;6.25;;
36653;SDS011;22650;49.350;20.898;2023-01-13T09:53:52;15.75;;;5.30;;
36653;SDS011;22650;49.350;20.898;2023-01-13T09:56:29;6.63;;;3.60;;
36653;SDS011;22650;49.350;20.898;2023-01-13T09:59:03;6.18;;;3.67;;
36653;SDS011;22650;49.350;20.898;2023-01-13T10:01:38;6.78;;;3.10;;
36653;SDS011;22650;49.350;20.898;2023-01-13T10:04:21;18.40;;;4.88;;
36653;SDS011;22650;49.350;20.898;2023-01-13T10:07:00;7.57;;;2.75;;
36653;SDS011;22650;49.350;20.898;2023-01-13T10:09:41;5.88;;;3.13;;
36653;SDS011;22650;49.350;20.898;2023-01-13T10:12:22;4.68;;;2.83;;
36653;SDS011;22650;49.350;20.898;2023-01-13T10:15:17;21.67;;;9.23;;
36653;SDS011;22650;49.350;20.898;2023-01-13T10:17:54;30.23;;;8.63;;
36653;SDS011;22650;49.350;20.898;2023-01-13T10:20:35;7.20;;;3.45;;
36653;SDS011;22650;49.350;20.898;2023-01-13T10:23:32;11.55;;;4.40;;
36653;SDS011;22650;49.350;20.898;2023-01-13T10:26:30;12.65;;;3.60;;
36653;SDS011;22650;49.350;20.898;2023-01-13T10:29:17;8.52;;;3.60;;
36653;SDS011;22650;49.350;20.898;2023-01-13T10:31:53;10.50;;;3.67;;
36653;SDS011;22650;49.350;20.898;2023-01-13T10:34:28;11.93;;;3.50;;
36653;SDS011;22650;49.350;20.898;2023-01-13T10:37:03;12.00;;;4.65;;
36653;SDS011;22650;49.350;20.898;2023-01-13T10:39:40;6.72;;;3.35;;
36653;SDS011;22650;49.350;20.898;2023-01-13T10:42:15;5.28;;;2.70;;
36653;SDS011;22650;49.350;20.898;2023-01-13T10:44:53;8.88;;;3.88;;
36653;SDS011;22650;49.350;20.898;2023-01-13T10:47:28;6.63;;;3.75;;
36653;SDS011;22650;49.350;20.898;2023-01-13T10:50:21;7.63;;;4.07;;
36653;SDS011;22650;49.350;20.898;2023-01-13T10:52:59;8.23;;;3.88;;
36653;SDS011;22650;49.350;20.898;2023-01-13T10:55:35;6.57;;;3.10;;
36653;SDS011;22650;49.350;20.898;2023-01-13T10:58:12;10.10;;;3.90;;
36653;SDS011;22650;49.350;20.898;2023-01-13T11:00:49;8.98;;;3.92;;
36653;SDS011;22650;49.350;20.898;2023-01-13T11:03:35;6.80;;;3.30;;
36653;SDS011;22650;49.350;20.898;2023-01-13T11:06:18;5.57;;;3.05;;
36653;SDS011;22650;49.350;20.898;2023-01-13T11:08:54;6.80;;;3.22;;
36653;SDS011;22650;49.350;20.898;2023-01-13T11:11:38;8.48;;;4.30;;
36653;SDS011;22650;49.350;20.898;2023-01-13T11:14:15;5.22;;;3.15;;
36653;SDS011;22650;49.350;20.898;2023-01-13T11:17:26;4.15;;;3.03;;
36653;SDS011;22650;49.350;20.898;2023-01-13T11:20:08;5.50;;;3.13;;
36653;SDS011;22650;49.350;20.898;2023-01-13T11:22:49;4.75;;;3.03;;
36653;SDS011;22650;49.350;20.898;2023-01-13T11:25:27;7.78;;;3.22;;
36653;SDS011;22650;49.350;20.898;2023-01-13T11:28:10;5.00;;;3.17;;
36653;SDS011;22650;49.350;20.898;2023-01-13T11:30:54;6.28;;;3.13;;
36653;SDS011;22650;49.350;20.898;2023-01-13T11:33:37;7.03;;;3.00;;
36653;SDS011;22650;49.350;20.898;2023-01-13T11:36:16;6.18;;;3.13;;
36653;SDS011;22650;49.350;20.898;2023-01-13T11:38:53;4.25;;;2.67;;
36653;SDS011;22650;49.350;20.898;2023-01-13T11:41:38;5.07;;;2.72;;
36653;SDS011;22650;49.350;20.898;2023-01-13T11:44:18;5.65;;;2.70;;
36653;SDS011;22650;49.350;20.898;2023-01-13T11:46:54;7.38;;;3.10;;
36653;SDS011;22650;49.350;20.898;2023-01-13T11:49:28;5.35;;;2.63;;
36653;SDS011;22650;49.350;20.898;2023-01-13T11:52:05;9.20;;;4.75;;
36653;SDS011;22650;49.350;20.898;2023-01-13T11:54:47;5.30;;;2.53;;
36653;SDS011;22650;49.350;20.898;2023-01-13T11:57:41;5.47;;;3.30;;
36653;SDS011;22650;49.350;20.898;2023-01-13T12:00:27;4.97;;;3.22;;
36653;SDS011;22650;49.350;20.898;2023-01-13T12:03:20;5.70;;;2.65;;
36653;SDS011;22650;49.350;20.898;2023-01-13T12:06:00;5.90;;;2.88;;
36653;SDS011;22650;49.350;20.898;2023-01-13T12:08:53;4.68;;;2.45;;
36653;SDS011;22650;49.350;20.898;2023-01-13T12:11:46;12.40;;;3.25;;
36653;SDS011;22650;49.350;20.898;2023-01-13T12:14:55;4.25;;;2.92;;
36653;SDS011;22650;49.350;20.898;2023-01-13T12:17:51;5.57;;;2.75;;
36653;SDS011;22650;49.350;20.898;2023-01-13T12:20:37;7.47;;;2.92;;
36653;SDS011;22650;49.350;20.898;2023-01-13T12:23:17;7.25;;;2.97;;
36653;SDS011;22650;49.350;20.898;2023-01-13T12:25:57;5.90;;;2.42;;
36653;SDS011;22650;49.350;20.898;2023-01-13T12:28:38;4.47;;;2.67;;
36653;SDS011;22650;49.350;20.898;2023-01-13T12:31:16;4.45;;;2.58;;
36653;SDS011;22650;49.350;20.898;2023-01-13T12:33:57;5.13;;;2.70;;
36653;SDS011;22650;49.350;20.898;2023-01-13T12:36:44;4.13;;;2.50;;
36653;SDS011;22650;49.350;20.898;2023-01-13T12:39:25;5.85;;;3.03;;
36653;SDS011;22650;49.350;20.898;2023-01-13T12:42:06;4.40;;;2.40;;
36653;SDS011;22650;49.350;20.898;2023-01-13T12:48:17;6.20;;;2.72;;
36653;SDS011;22650;49.350;20.898;2023-01-13T12:51:58;5.72;;;2.97;;
36653;SDS011;22650;49.350;20.898;2023-01-13T12:57:57;6.60;;;3.28;;
36653;SDS011;22650;49.350;20.898;2023-01-13T13:00:52;6.90;;;2.83;;
36653;SDS011;22650;49.350;20.898;2023-01-13T13:03:30;5.13;;;3.00;;
36653;SDS011;22650;49.350;20.898;2023-01-13T13:06:06;5.55;;;2.70;;
36653;SDS011;22650;49.350;20.898;2023-01-13T13:08:49;8.77;;;3.05;;
36653;SDS011;22650;49.350;20.898;2023-01-13T13:11:41;4.95;;;2.92;;
36653;SDS011;22650;49.350;20.898;2023-01-13T13:17:41;5.07;;;2.60;;
36653;SDS011;22650;49.350;20.898;2023-01-13T13:23:27;4.85;;;2.55;;
36653;SDS011;22650;49.350;20.898;2023-01-13T13:26:21;5.68;;;2.90;;
36653;SDS011;22650;49.350;20.898;2023-01-13T13:29:28;5.70;;;3.13;;
36653;SDS011;22650;49.350;20.898;2023-01-13T13:32:19;5.50;;;2.72;;
36653;SDS011;22650;49.350;20.898;2023-01-13T13:35:17;7.60;;;2.70;;
36653;SDS011;22650;49.350;20.898;2023-01-13T13:38:10;4.82;;;2.60;;
36653;SDS011;22650;49.350;20.898;2023-01-13T13:41:12;4.32;;;2.30;;
36653;SDS011;22650;49.350;20.898;2023-01-13T13:44:11;5.30;;;2.40;;
36653;SDS011;22650;49.350;20.898;2023-01-13T13:47:05;5.70;;;2.55;;
36653;SDS011;22650;49.350;20.898;2023-01-13T13:49:39;4.30;;;2.15;;
36653;SDS011;22650;49.350;20.898;2023-01-13T13:52:17;3.80;;;2.20;;
36653;SDS011;22650;49.350;20.898;2023-01-13T13:54:54;6.75;;;2.88;;
36653;SDS011;22650;49.350;20.898;2023-01-13T13:57:38;9.27;;;3.28;;
36653;SDS011;22650;49.350;20.898;2023-01-13T14:00:20;7.25;;;3.10;;
36653;SDS011;22650;49.350;20.898;2023-01-13T14:02:58;5.80;;;2.58;;
36653;SDS011;22650;49.350;20.898;2023-01-13T14:05:35;4.78;;;2.30;;
36653;SDS011;22650;49.350;20.898;2023-01-13T14:08:11;6.05;;;3.03;;
36653;SDS011;22650;49.350;20.898;2023-01-13T14:10:47;4.53;;;2.40;;
36653;SDS011;22650;49.350;20.898;2023-01-13T14:13:21;3.40;;;2.30;;
36653;SDS011;22650;49.350;20.898;2023-01-13T14:15:58;4.43;;;2.47;;
36653;SDS011;22650;49.350;20.898;2023-01-13T14:18:43;5.25;;;2.90;;
36653;SDS011;22650;49.350;20.898;2023-01-13T14:21:19;4.55;;;2.78;;
36653;SDS011;22650;49.350;20.898;2023-01-13T14:23:56;5.57;;;2.60;;
36653;SDS011;22650;49.350;20.898;2023-01-13T14:26:32;4.97;;;2.72;;
36653;SDS011;22650;49.350;20.898;2023-01-13T14:29:08;5.85;;;2.88;;
36653;SDS011;22650;49.350;20.898;2023-01-13T14:31:46;5.32;;;2.72;;
36653;SDS011;22650;49.350;20.898;2023-01-13T14:34:29;6.57;;;3.50;;
36653;SDS011;22650;49.350;20.898;2023-01-13T14:37:17;3.95;;;2.35;;
36653;SDS011;22650;49.350;20.898;2023-01-13T14:39:56;6.68;;;2.95;;
36653;SDS011;22650;49.350;20.898;2023-01-13T14:42:30;5.57;;;3.00;;
36653;SDS011;22650;49.350;20.898;2023-01-13T14:45:19;4.40;;;2.83;;
36653;SDS011;22650;49.350;20.898;2023-01-13T14:47:56;3.65;;;2.67;;
36653;SDS011;22650;49.350;20.898;2023-01-13T14:50:34;5.43;;;2.95;;
36653;SDS011;22650;49.350;20.898;2023-01-13T14:53:23;3.95;;;2.42;;
36653;SDS011;22650;49.350;20.898;2023-01-13T14:55:59;5.03;;;2.58;;
36653;SDS011;22650;49.350;20.898;2023-01-13T14:58:53;6.75;;;2.97;;
36653;SDS011;22650;49.350;20.898;2023-01-13T15:01:27;6.88;;;2.60;;
36653;SDS011;22650;49.350;20.898;2023-01-13T15:04:21;5.80;;;2.33;;
36653;SDS011;22650;49.350;20.898;2023-01-13T15:06:57;8.35;;;3.38;;
36653;SDS011;22650;49.350;20.898;2023-01-13T15:09:35;7.15;;;2.95;;
36653;SDS011;22650;49.350;20.898;2023-01-13T15:12:13;6.32;;;2.72;;
36653;SDS011;22650;49.350;20.898;2023-01-13T15:14:49;6.88;;;3.28;;
36653;SDS011;22650;49.350;20.898;2023-01-13T15:17:23;8.35;;;2.97;;
36653;SDS011;22650;49.350;20.898;2023-01-13T15:19:58;6.75;;;2.97;;
36653;SDS011;22650;49.350;20.898;2023-01-13T15:22:32;8.55;;;3.35;;
36653;SDS011;22650;49.350;20.898;2023-01-13T15:25:06;5.25;;;3.00;;
36653;SDS011;22650;49.350;20.898;2023-01-13T15:27:40;4.97;;;2.92;;
36653;SDS011;22650;49.350;20.898;2023-01-13T15:30:15;5.90;;;3.28;;
36653;SDS011;22650;49.350;20.898;2023-01-13T15:32:50;5.05;;;3.22;;
36653;SDS011;22650;49.350;20.898;2023-01-13T15:35:27;6.25;;;3.13;;
36653;SDS011;22650;49.350;20.898;2023-01-13T15:38:01;6.57;;;3.30;;
36653;SDS011;22650;49.350;20.898;2023-01-13T15:40:38;5.97;;;3.08;;
36653;SDS011;22650;49.350;20.898;2023-01-13T15:43:12;6.32;;;2.67;;
36653;SDS011;22650;49.350;20.898;2023-01-13T15:46:09;5.80;;;2.88;;